Valle Toledo, Valles Caldera, New Mexico Weather observations

Data are for 10 minute period ending at time listed.
 Day   Time   Solar   Ave.   Ave.  Ave.  Vector  Max.   Baro.   Total    
  of    of     Rad.   Air    Rel.  Wind   Wind   Wind  Press.  Precip.   
Year   Day            Temp.  Hum.  Speed  Dir.   Gust                    
2026   (MST)  Kw/m2    F      %     mph   deg.    mph    mb.     in.     
-------------------------------------------------------------------------
 245    8:30   0.55   63.2    46    0.0     0     0.0   738.1    0.00 
 245    8:40   0.58   63.3    45    0.0     0     0.0   738.2    0.00 
 245    8:50   0.61   64.0    43    0.0     0     0.0   738.1    0.00 
 245    9:00   0.64   64.5    41    0.0     0     0.0   738.2    0.00 
 245    9:10   0.68   64.9    40    0.0     0     0.0   738.2    0.00 
 245    9:20   0.72   65.2    37    0.0     0     0.0   738.3    0.00 
 245    9:30   0.75   66.1    35    0.0     0     0.0   738.2    0.00 
 245    9:40   0.78   66.1    34    0.0     0     0.0   738.4    0.00 
 245    9:50   0.72   66.9    34    0.0     0     0.0   738.5    0.00 
 245   10:00   0.70   67.1    34    0.0     0     0.0   738.4    0.00 
 245   10:10   0.61   66.0    36    2.9    76     9.0   738.4    0.00 
 245   10:20   0.83   66.5    35    5.2    86    10.8   738.4    0.00 
 245   10:30   0.65   67.3    34    0.0     0     0.0   738.4    0.00 
 245   10:40   0.48   66.9    35    0.0     0     0.0   738.3    0.00 
 245   10:50   0.59   65.8    37    4.0    84     9.6   738.4    0.00 
 245   11:00   0.73   66.8    35    3.2    52     9.0   738.3    0.00 
 245   11:10   0.42   66.4    35    0.0    46     1.2   738.3    0.00 
 245   11:20   0.76   66.8    34    3.3    74    10.2   738.3    0.00 
 245   11:30   0.57   67.6    33    0.0     0     0.0   738.3    0.00 
 245   11:40   0.27   66.0    34    1.3    99    11.3   738.2    0.00 
 245   11:50   1.03   67.9    35    1.1    62     9.6   738.1    0.00 
 245   12:00   0.83   69.5    31    4.4    65    11.3   738.0    0.00 
 245   12:10   0.82   69.2    31    6.2    94    13.1   737.8    0.00 
 245   12:20   0.80   69.1    31    4.4    54    12.5   737.7    0.00 
 245   12:30   0.87   70.5    28    5.7    41    11.9   737.5    0.00 
 245   12:40   0.76   69.2    29    6.4    85    17.3   737.5    0.00 
 245   12:50   0.32   68.3    29    7.3   121    13.1   737.4    0.00 
 245   13:00   0.33   67.1    29    3.6    98    11.3   737.5    0.00 
 245   13:10   0.71   69.3    29    7.5    94    14.3   737.4    0.00 
 245   13:20   0.34   67.8    30    3.5   120    11.3   737.4    0.00 
 245   13:30   0.42   68.1    28    0.0     0     0.0   737.3    0.00 
 245   13:40   0.99   70.8    26    2.9   102    10.8   737.2    0.00 
 245   13:50   0.96   72.7    24    7.6   109    16.1   736.9    0.00 
 245   14:00   0.83   71.6    25    8.6    98    15.5   736.7    0.00 
 245   14:10   0.68   71.5    24    6.5   119    14.9   736.6    0.00 
 245   14:20   0.42   69.8    26    4.8    82    13.7   736.6    0.00 
 245   14:30   0.43   69.0    26    4.6    95     9.0   736.6    0.00 
 245   14:40   0.43   70.2    25    6.8   100    17.9   736.5    0.00 
 245   14:50   0.83   71.3    25    6.0   105    13.7   736.5    0.00 
 245   15:00   0.47   72.4    23    5.4    58    13.1   736.4    0.00 
 245   15:10   0.63   71.5    24    6.3   123    11.9   736.3    0.00 
 245   15:20   0.64   73.6    22    6.1    47    14.3   736.2    0.00 
 245   15:30   0.51   70.8    24    5.4    48    11.9   736.2    0.00 
 245   15:40   0.61   71.7    23    7.9    97    17.9   736.2    0.00 
 245   15:50   0.59   72.9    22    0.0     0     0.0   736.1    0.00 
 245   16:00   0.31   71.1    23    3.8   110    14.3   736.1    0.00 
 245   16:10   0.51   72.1    22    4.6    67     9.0   736.1    0.00 
 245   16:20   0.47   72.1    21    6.7    86    13.1   736.1    0.00 
 245   16:30   0.38   72.1    20    0.0   132     1.2   736.0    0.00 
 245   16:40   0.35   71.5    21    2.5    95     9.6   736.2    0.00 
 245   16:50   0.25   71.5    21    2.3   111    13.1   736.2    0.00 
 245   17:00   0.30   71.8    22    0.0     0     0.0   736.1    0.00 
 245   17:10   0.27   71.3    21    4.4    79    10.2   736.1    0.00 
 245   17:20   0.23   71.4    20    6.1   109    12.5   736.1    0.00 
 245   17:30   0.20   70.9    21    4.6    91     9.6   736.1    0.00 
 245   17:40   0.15   70.5    21    4.3    96    11.3   735.9    0.00 
 245   17:50   0.13   70.4    21    2.9   107     6.6   736.0    0.00 
 245   18:00   0.05   69.0    22    2.2    86     6.6   736.0    0.00 
 245   18:10   0.06   68.5    22    1.8    96     7.2   736.0    0.00 
 245   18:20   0.04   67.2    23    3.5   111     9.0   736.0    0.00 
 245   18:30   0.01   65.5    25    1.7   102     6.0   736.0    0.00 
 245   18:40   0.00   63.9    27    0.0     0     0.0   736.1    0.00 
 245   18:50   0.00   61.9    29    0.0     0     0.0   736.1    0.00 
 245   19:00   0.00   60.6    31    0.0     0     0.0   736.2    0.00 
 245   19:10   0.00   60.1    32    0.0     0     0.0   736.2    0.00 
 245   19:20   0.00   59.6    30    0.0     0     0.0   736.3    0.00 
 245   19:30   0.00   59.4    32    0.0     0     0.0   736.3    0.00 
 245   19:40   0.00   58.6    34    0.0     0     0.0   736.3    0.00 
 245   19:50   0.00   57.9    36    0.0     0     0.0   736.3    0.00 
 245   20:00   0.00   58.0    34    0.0     0     0.0   736.4    0.00 
 245   20:10   0.00   57.9    37    0.0     0     0.0   736.5    0.00 
 245   20:20   0.00   57.4    38    0.0     0     0.0   736.6    0.00 
 245   20:30   0.00   56.8    40    0.0     0     0.0   736.7    0.00 
 245   20:40   0.00   55.8    42    0.0     0     0.0   736.7    0.00 
 245   20:50   0.00   55.8    42    0.0     0     0.0   736.7    0.00 
 245   21:00   0.00   56.2    40    0.0     0     0.0   736.8    0.00 
 245   21:10   0.00   56.6    39    0.0     0     0.0   736.8    0.00 
 245   21:20   0.00   55.9    41    0.0     0     0.0   736.8    0.00 
 245   21:30   0.00   55.5    40    0.0     0     0.0   736.9    0.00 
 245   21:40   0.00   55.4    40    0.0     0     0.0   736.8    0.00 
 245   21:50   0.00   54.9    42    0.0     0     0.0   736.8    0.00 
 245   22:00   0.00   54.9    42    0.0     0     0.0   736.8    0.00 
 245   22:10   0.00   54.8    44    0.0     0     0.0   736.8    0.00 
 245   22:20   0.00   54.7    45    0.0     0     0.0   736.7    0.00 
 245   22:30   0.00   53.8    48    0.0     0     0.0   736.7    0.00 
 245   22:40   0.00   53.1    50    0.0     0     0.0   736.6    0.00 
 245   22:50   0.00   52.7    50    0.0     0     0.0   736.5    0.00 
 245   23:00   0.00   52.3    50    0.0     0     0.0   736.5    0.00 
 245   23:10   0.00   51.9    52    0.0     0     0.0   736.5    0.00 
 245   23:20   0.00   51.4    53    0.0     0     0.0   736.5    0.00 
 245   23:30   0.00   51.3    52    0.0     0     0.0   736.5    0.00 
 245   23:40   0.00   51.4    52    0.0     0     0.0   736.5    0.00 
 245   23:50   0.00   51.3    52    0.0     0     0.0   736.5    0.00 
 246    0:00   0.00   51.1    53    0.0     0     0.0   736.5    0.00 
 246    0:10   0.00   51.4    53    0.0     0     0.0   736.5    0.00 
 246    0:20   0.00   51.5    53    0.0     0     0.0   736.5    0.00 
 246    0:30   0.00   50.9    55    0.0     0     0.0   736.5    0.00 
 246    0:40   0.00   50.6    56    0.0     0     0.0   736.5    0.00 
 246    0:50   0.00   50.9    56    0.0     0     0.0   736.4    0.00 
 246    1:00   0.00   51.4    55    0.0     0     0.0   736.3    0.00 
 246    1:10   0.00   51.3    56    0.0     0     0.0   736.3    0.00 
 246    1:20   0.00   51.1    59    0.0     0     0.0   736.3    0.00 
 246    1:30   0.00   52.0    58    0.0     0     0.0   736.4    0.00 
 246    1:40   0.00   53.5    57    0.0     0     0.0   736.0    0.00 
 246    1:50   0.00   53.1    59    0.0     0     0.0   736.0    0.00 
 246    2:00   0.00   52.9    60    0.0     0     0.0   736.0    0.00 
 246    2:10   0.00   52.5    62    0.0     0     0.0   735.9    0.00 
 246    2:20   0.00   52.0    63    0.0     0     0.0   735.9    0.00 
 246    2:30   0.00   51.4    65    0.0     0     0.0   735.9    0.00 
 246    2:40   0.00   51.1    66    0.0     0     0.0   736.1    0.00 
 246    2:50   0.00   51.1    66    0.0     0     0.0   736.3    0.00 
 246    3:00   0.00   50.6    67    0.0     0     0.0   736.3    0.00 
 246    3:10   0.00   50.3    68    0.0     0     0.0   736.1    0.00 
 246    3:20   0.00   50.2    69    0.0     0     0.0   736.1    0.00 
 246    3:30   0.00   50.8    68    0.0     0     0.0   736.2    0.00 
 246    3:40   0.00   51.2    66    0.0     0     0.0   736.2    0.00 
 246    3:50   0.00   51.6    66    0.0     0     0.0   736.2    0.00 
 246    4:00   0.00   52.8    64    0.0     0     0.0   736.2    0.00 
 246    4:10   0.00   53.4    62    0.0     0     0.0   736.2    0.00 
 246    4:20   0.00   53.1    63    0.0     0     0.0   736.3    0.00 
 246    4:30   0.00   52.9    64    0.0     0     0.0   736.4    0.00 
 246    4:40   0.00   52.5    65    0.0     0     0.0   736.5    0.00 
 246    4:50   0.00   52.7    66    0.0     0     0.0   736.5    0.00 
 246    5:00   0.00   52.6    66    0.0     0     0.0   736.4    0.00 
 246    5:10   0.00   52.5    66    0.0     0     0.0   736.4    0.00 
 246    5:20   0.00   52.8    66    0.0     0     0.0   736.5    0.00 
 246    5:30   0.00   53.2    65    0.0     0     0.0   736.4    0.00 
 246    5:40   0.00   52.9    65    0.1   158     1.8   736.4    0.00 
 246    5:50   0.01   50.2    71    0.0     0     0.0   736.4    0.00 
 246    6:00   0.02   49.7    73    0.0     0     0.0   736.5    0.00 
 246    6:10   0.02   51.0    70    0.0     0     0.0   736.6    0.00 
 246    6:20   0.03   51.5    69    0.0     0     0.0   736.8    0.00 
 246    6:30   0.04   51.2    70    0.0     0     0.0   736.7    0.00 
 246    6:40   0.04   51.8    69    0.0     0     0.0   736.8    0.00 
 246    6:50   0.16   53.8    65    0.0     0     0.0   736.8    0.00 
 246    7:00   0.23   56.9    60    0.0     0     0.0   736.9    0.00 
 246    7:10   0.26   60.0    55    0.0     0     0.0   737.0    0.00 
 246    7:20   0.16   61.0    51    0.0     0     0.0   736.9    0.00 
 246    7:30   0.30   60.3    54    0.0     0     0.0   737.0    0.00 
 246    7:40   0.36   62.0    48    0.0     0     0.0   737.0    0.00 
 246    7:50   0.40   61.8    49    0.0     0     0.0   737.0    0.00 
 246    8:00   0.44   61.4    50    0.0     0     0.0   737.0    0.00 
 246    8:10   0.47   61.2    50    0.0     0     0.0   737.0    0.00 
 246    8:20   0.46   62.3    47    0.9    81     6.0   737.0    0.00 

Return to Valle Toledo, Valles Caldera graphs page.


Western Regional Climate Center,wrcc@dri.edu